sensor_id;sensor_type;location;lat;lon;timestamp;P1;durP1;ratioP1;P2;durP2;ratioP2
55647;SDS011;45266;48.756;9.246;2022-08-25T00:00:47;3.40;;;3.10;;
55647;SDS011;45266;48.756;9.246;2022-08-25T00:01:52;3.17;;;2.92;;
55647;SDS011;45266;48.756;9.246;2022-08-25T00:02:56;3.40;;;2.85;;
55647;SDS011;45266;48.756;9.246;2022-08-25T00:03:59;3.42;;;3.13;;
55647;SDS011;45266;48.756;9.246;2022-08-25T00:05:03;3.10;;;2.88;;
55647;SDS011;45266;48.756;9.246;2022-08-25T00:06:06;3.00;;;2.80;;
55647;SDS011;45266;48.756;9.246;2022-08-25T00:07:09;3.40;;;2.70;;
55647;SDS011;45266;48.756;9.246;2022-08-25T00:08:18;3.50;;;2.80;;
55647;SDS011;45266;48.756;9.246;2022-08-25T00:09:21;3.30;;;3.00;;
55647;SDS011;45266;48.756;9.246;2022-08-25T00:10:26;3.03;;;2.83;;
55647;SDS011;45266;48.756;9.246;2022-08-25T00:11:29;3.10;;;2.80;;
55647;SDS011;45266;48.756;9.246;2022-08-25T00:12:32;3.72;;;3.40;;
55647;SDS011;45266;48.756;9.246;2022-08-25T00:13:34;3.38;;;3.08;;
55647;SDS011;45266;48.756;9.246;2022-08-25T00:14:36;2.90;;;2.70;;
55647;SDS011;45266;48.756;9.246;2022-08-25T00:15:38;2.90;;;2.70;;
55647;SDS011;45266;48.756;9.246;2022-08-25T00:16:40;3.13;;;2.90;;
55647;SDS011;45266;48.756;9.246;2022-08-25T00:17:42;3.45;;;3.15;;
55647;SDS011;45266;48.756;9.246;2022-08-25T00:18:46;6.30;;;3.00;;
55647;SDS011;45266;48.756;9.246;2022-08-25T00:19:50;3.58;;;2.80;;
55647;SDS011;45266;48.756;9.246;2022-08-25T00:20:52;3.88;;;3.30;;
55647;SDS011;45266;48.756;9.246;2022-08-25T00:21:54;3.53;;;3.00;;
55647;SDS011;45266;48.756;9.246;2022-08-25T00:22:56;3.45;;;3.15;;
55647;SDS011;45266;48.756;9.246;2022-08-25T00:23:58;3.67;;;2.60;;
55647;SDS011;45266;48.756;9.246;2022-08-25T00:25:04;3.15;;;2.85;;
55647;SDS011;45266;48.756;9.246;2022-08-25T00:26:06;3.30;;;3.00;;
55647;SDS011;45266;48.756;9.246;2022-08-25T00:27:09;2.80;;;2.60;;
55647;SDS011;45266;48.756;9.246;2022-08-25T00:28:12;3.30;;;3.00;;
55647;SDS011;45266;48.756;9.246;2022-08-25T00:29:17;3.20;;;2.95;;
55647;SDS011;45266;48.756;9.246;2022-08-25T00:30:19;3.65;;;2.78;;
55647;SDS011;45266;48.756;9.246;2022-08-25T00:31:20;3.25;;;2.85;;
55647;SDS011;45266;48.756;9.246;2022-08-25T00:32:37;3.40;;;3.10;;
55647;SDS011;45266;48.756;9.246;2022-08-25T00:33:40;3.28;;;2.97;;
55647;SDS011;45266;48.756;9.246;2022-08-25T00:34:42;3.35;;;3.05;;
55647;SDS011;45266;48.756;9.246;2022-08-25T00:35:45;3.10;;;2.80;;
55647;SDS011;45266;48.756;9.246;2022-08-25T00:36:47;3.28;;;2.97;;
55647;SDS011;45266;48.756;9.246;2022-08-25T00:37:51;3.00;;;2.70;;
55647;SDS011;45266;48.756;9.246;2022-08-25T00:38:53;3.42;;;2.78;;
55647;SDS011;45266;48.756;9.246;2022-08-25T00:39:56;4.28;;;2.97;;
55647;SDS011;45266;48.756;9.246;2022-08-25T00:40:58;3.03;;;2.83;;
55647;SDS011;45266;48.756;9.246;2022-08-25T00:42:06;3.33;;;3.03;;
55647;SDS011;45266;48.756;9.246;2022-08-25T00:45:32;3.08;;;2.88;;
55647;SDS011;45266;48.756;9.246;2022-08-25T00:46:40;3.08;;;2.83;;
55647;SDS011;45266;48.756;9.246;2022-08-25T00:47:44;3.10;;;2.85;;
55647;SDS011;45266;48.756;9.246;2022-08-25T00:48:46;3.20;;;2.92;;
55647;SDS011;45266;48.756;9.246;2022-08-25T00:49:55;3.13;;;2.92;;
55647;SDS011;45266;48.756;9.246;2022-08-25T00:51:00;3.33;;;2.88;;
55647;SDS011;45266;48.756;9.246;2022-08-25T00:52:13;3.67;;;3.25;;
55647;SDS011;45266;48.756;9.246;2022-08-25T00:53:20;6.13;;;3.38;;
55647;SDS011;45266;48.756;9.246;2022-08-25T00:54:23;3.00;;;2.80;;
55647;SDS011;45266;48.756;9.246;2022-08-25T00:55:35;3.17;;;2.97;;
55647;SDS011;45266;48.756;9.246;2022-08-25T00:56:40;3.10;;;2.80;;
55647;SDS011;45266;48.756;9.246;2022-08-25T00:57:45;3.47;;;3.17;;
55647;SDS011;45266;48.756;9.246;2022-08-25T00:58:50;5.05;;;3.20;;
55647;SDS011;45266;48.756;9.246;2022-08-25T00:59:52;3.45;;;2.72;;
55647;SDS011;45266;48.756;9.246;2022-08-25T01:00:55;3.20;;;2.90;;
55647;SDS011;45266;48.756;9.246;2022-08-25T01:01:58;4.38;;;3.47;;
55647;SDS011;45266;48.756;9.246;2022-08-25T01:03:00;3.78;;;2.80;;
55647;SDS011;45266;48.756;9.246;2022-08-25T01:04:03;4.13;;;3.03;;
55647;SDS011;45266;48.756;9.246;2022-08-25T01:05:05;4.30;;;2.80;;
55647;SDS011;45266;48.756;9.246;2022-08-25T01:06:07;4.45;;;3.03;;
55647;SDS011;45266;48.756;9.246;2022-08-25T01:07:11;3.35;;;2.95;;
55647;SDS011;45266;48.756;9.246;2022-08-25T01:08:18;3.22;;;2.92;;
55647;SDS011;45266;48.756;9.246;2022-08-25T01:09:29;4.93;;;2.78;;
55647;SDS011;45266;48.756;9.246;2022-08-25T01:10:33;3.40;;;3.10;;
55647;SDS011;45266;48.756;9.246;2022-08-25T01:11:36;3.40;;;2.70;;
55647;SDS011;45266;48.756;9.246;2022-08-25T01:12:38;3.00;;;2.70;;
55647;SDS011;45266;48.756;9.246;2022-08-25T01:13:42;3.55;;;3.25;;
55647;SDS011;45266;48.756;9.246;2022-08-25T01:14:49;3.00;;;2.80;;
55647;SDS011;45266;48.756;9.246;2022-08-25T01:15:53;4.70;;;3.05;;
55647;SDS011;45266;48.756;9.246;2022-08-25T01:16:56;3.13;;;2.83;;
55647;SDS011;45266;48.756;9.246;2022-08-25T01:17:59;3.97;;;3.53;;
55647;SDS011;45266;48.756;9.246;2022-08-25T01:19:01;3.78;;;3.47;;
55647;SDS011;45266;48.756;9.246;2022-08-25T01:20:04;4.03;;;3.42;;
55647;SDS011;45266;48.756;9.246;2022-08-25T01:21:06;3.22;;;2.92;;
55647;SDS011;45266;48.756;9.246;2022-08-25T01:22:08;4.82;;;3.15;;
55647;SDS011;45266;48.756;9.246;2022-08-25T01:23:12;3.55;;;3.25;;
55647;SDS011;45266;48.756;9.246;2022-08-25T01:24:34;3.53;;;3.22;;
55647;SDS011;45266;48.756;9.246;2022-08-25T01:26:51;3.58;;;3.28;;
55647;SDS011;45266;48.756;9.246;2022-08-25T01:27:54;3.25;;;2.95;;
55647;SDS011;45266;48.756;9.246;2022-08-25T01:28:56;3.70;;;3.40;;
55647;SDS011;45266;48.756;9.246;2022-08-25T01:30:17;3.50;;;3.20;;
55647;SDS011;45266;48.756;9.246;2022-08-25T01:31:19;3.25;;;2.85;;
55647;SDS011;45266;48.756;9.246;2022-08-25T01:32:24;3.22;;;3.03;;
55647;SDS011;45266;48.756;9.246;2022-08-25T01:33:26;3.70;;;3.40;;
55647;SDS011;45266;48.756;9.246;2022-08-25T01:34:29;3.60;;;3.30;;
55647;SDS011;45266;48.756;9.246;2022-08-25T01:35:33;3.55;;;3.25;;
55647;SDS011;45266;48.756;9.246;2022-08-25T01:36:35;4.53;;;3.38;;
55647;SDS011;45266;48.756;9.246;2022-08-25T01:37:38;3.58;;;3.28;;
55647;SDS011;45266;48.756;9.246;2022-08-25T01:38:40;3.90;;;3.50;;
55647;SDS011;45266;48.756;9.246;2022-08-25T01:39:42;3.97;;;3.10;;
55647;SDS011;45266;48.756;9.246;2022-08-25T01:40:44;3.58;;;3.28;;
55647;SDS011;45266;48.756;9.246;2022-08-25T01:43:20;3.95;;;3.58;;
55647;SDS011;45266;48.756;9.246;2022-08-25T01:44:27;3.33;;;3.03;;
55647;SDS011;45266;48.756;9.246;2022-08-25T01:45:29;3.40;;;3.10;;
55647;SDS011;45266;48.756;9.246;2022-08-25T01:46:31;4.25;;;3.83;;
55647;SDS011;45266;48.756;9.246;2022-08-25T01:47:34;3.47;;;3.17;;
55647;SDS011;45266;48.756;9.246;2022-08-25T01:48:37;5.00;;;3.30;;
55647;SDS011;45266;48.756;9.246;2022-08-25T01:49:39;6.03;;;3.30;;
55647;SDS011;45266;48.756;9.246;2022-08-25T01:50:41;3.45;;;3.17;;
55647;SDS011;45266;48.756;9.246;2022-08-25T01:51:50;4.28;;;3.55;;
55647;SDS011;45266;48.756;9.246;2022-08-25T01:54:33;5.00;;;3.25;;
55647;SDS011;45266;48.756;9.246;2022-08-25T01:55:35;3.63;;;3.33;;
55647;SDS011;45266;48.756;9.246;2022-08-25T01:56:56;3.40;;;3.10;;
55647;SDS011;45266;48.756;9.246;2022-08-25T01:57:58;3.50;;;3.17;;
55647;SDS011;45266;48.756;9.246;2022-08-25T01:59:00;3.80;;;3.50;;
55647;SDS011;45266;48.756;9.246;2022-08-25T02:00:04;4.32;;;3.92;;
55647;SDS011;45266;48.756;9.246;2022-08-25T02:01:09;3.85;;;3.42;;
55647;SDS011;45266;48.756;9.246;2022-08-25T02:02:16;4.10;;;3.70;;
55647;SDS011;45266;48.756;9.246;2022-08-25T02:03:18;3.50;;;3.20;;
55647;SDS011;45266;48.756;9.246;2022-08-25T02:04:20;3.97;;;3.58;;
55647;SDS011;45266;48.756;9.246;2022-08-25T02:05:22;4.50;;;3.53;;
55647;SDS011;45266;48.756;9.246;2022-08-25T02:06:25;4.00;;;3.60;;
55647;SDS011;45266;48.756;9.246;2022-08-25T02:07:33;4.30;;;3.75;;
55647;SDS011;45266;48.756;9.246;2022-08-25T02:08:35;3.78;;;3.47;;
55647;SDS011;45266;48.756;9.246;2022-08-25T02:09:38;3.42;;;3.13;;
55647;SDS011;45266;48.756;9.246;2022-08-25T02:10:40;4.95;;;3.75;;
55647;SDS011;45266;48.756;9.246;2022-08-25T02:11:42;3.97;;;3.67;;
55647;SDS011;45266;48.756;9.246;2022-08-25T02:12:46;4.90;;;3.50;;
55647;SDS011;45266;48.756;9.246;2022-08-25T02:13:48;3.92;;;3.63;;
55647;SDS011;45266;48.756;9.246;2022-08-25T02:14:52;5.10;;;3.78;;
55647;SDS011;45266;48.756;9.246;2022-08-25T02:15:54;4.40;;;3.63;;
55647;SDS011;45266;48.756;9.246;2022-08-25T02:16:58;3.90;;;3.47;;
55647;SDS011;45266;48.756;9.246;2022-08-25T02:17:59;4.00;;;3.60;;
55647;SDS011;45266;48.756;9.246;2022-08-25T02:19:02;4.55;;;4.15;;
55647;SDS011;45266;48.756;9.246;2022-08-25T02:20:07;5.05;;;3.83;;
55647;SDS011;45266;48.756;9.246;2022-08-25T02:21:09;3.97;;;3.58;;
55647;SDS011;45266;48.756;9.246;2022-08-25T02:22:11;4.45;;;3.97;;
55647;SDS011;45266;48.756;9.246;2022-08-25T02:23:13;3.58;;;3.28;;
55647;SDS011;45266;48.756;9.246;2022-08-25T02:24:15;4.38;;;3.97;;
55647;SDS011;45266;48.756;9.246;2022-08-25T02:25:18;3.70;;;3.40;;
55647;SDS011;45266;48.756;9.246;2022-08-25T02:26:20;4.57;;;3.80;;
55647;SDS011;45266;48.756;9.246;2022-08-25T02:27:22;4.30;;;3.45;;
55647;SDS011;45266;48.756;9.246;2022-08-25T02:28:24;4.07;;;3.63;;
55647;SDS011;45266;48.756;9.246;2022-08-25T02:29:26;4.30;;;3.90;;
55647;SDS011;45266;48.756;9.246;2022-08-25T02:30:28;3.92;;;3.63;;
55647;SDS011;45266;48.756;9.246;2022-08-25T02:31:31;4.07;;;3.67;;
55647;SDS011;45266;48.756;9.246;2022-08-25T02:32:33;4.05;;;3.70;;
55647;SDS011;45266;48.756;9.246;2022-08-25T02:33:35;4.30;;;3.88;;
55647;SDS011;45266;48.756;9.246;2022-08-25T02:34:37;4.28;;;3.92;;
55647;SDS011;45266;48.756;9.246;2022-08-25T02:35:41;4.45;;;4.05;;
55647;SDS011;45266;48.756;9.246;2022-08-25T02:36:43;4.35;;;3.78;;
55647;SDS011;45266;48.756;9.246;2022-08-25T02:37:45;4.57;;;3.83;;
55647;SDS011;45266;48.756;9.246;2022-08-25T02:38:46;5.88;;;4.10;;
55647;SDS011;45266;48.756;9.246;2022-08-25T02:39:48;5.20;;;4.32;;
55647;SDS011;45266;48.756;9.246;2022-08-25T02:40:50;4.82;;;4.13;;
55647;SDS011;45266;48.756;9.246;2022-08-25T02:41:52;4.35;;;3.95;;
55647;SDS011;45266;48.756;9.246;2022-08-25T02:42:54;5.25;;;4.47;;
55647;SDS011;45266;48.756;9.246;2022-08-25T02:43:58;4.00;;;3.67;;
55647;SDS011;45266;48.756;9.246;2022-08-25T02:45:00;5.60;;;3.88;;
55647;SDS011;45266;48.756;9.246;2022-08-25T02:46:02;4.95;;;3.65;;
55647;SDS011;45266;48.756;9.246;2022-08-25T02:47:06;4.53;;;4.13;;
55647;SDS011;45266;48.756;9.246;2022-08-25T02:48:08;5.90;;;4.20;;
55647;SDS011;45266;48.756;9.246;2022-08-25T02:49:09;6.15;;;4.07;;
55647;SDS011;45266;48.756;9.246;2022-08-25T02:50:11;4.18;;;3.78;;
55647;SDS011;45266;48.756;9.246;2022-08-25T02:51:13;5.07;;;4.18;;
55647;SDS011;45266;48.756;9.246;2022-08-25T02:52:15;4.72;;;3.95;;
55647;SDS011;45266;48.756;9.246;2022-08-25T02:53:17;4.53;;;4.13;;
55647;SDS011;45266;48.756;9.246;2022-08-25T02:54:19;4.22;;;3.83;;
55647;SDS011;45266;48.756;9.246;2022-08-25T02:55:23;5.22;;;3.95;;
55647;SDS011;45266;48.756;9.246;2022-08-25T02:56:24;5.07;;;3.90;;
55647;SDS011;45266;48.756;9.246;2022-08-25T02:57:27;4.70;;;3.80;;
55647;SDS011;45266;48.756;9.246;2022-08-25T02:58:29;5.82;;;4.22;;
55647;SDS011;45266;48.756;9.246;2022-08-25T02:59:31;4.93;;;4.43;;
55647;SDS011;45266;48.756;9.246;2022-08-25T03:00:32;4.30;;;3.80;;
55647;SDS011;45266;48.756;9.246;2022-08-25T03:01:35;4.78;;;4.05;;
55647;SDS011;45266;48.756;9.246;2022-08-25T03:02:37;4.22;;;3.85;;
55647;SDS011;45266;48.756;9.246;2022-08-25T03:03:42;5.50;;;4.10;;
55647;SDS011;45266;48.756;9.246;2022-08-25T03:04:45;5.43;;;4.53;;
55647;SDS011;45266;48.756;9.246;2022-08-25T03:05:47;4.47;;;4.07;;
55647;SDS011;45266;48.756;9.246;2022-08-25T03:06:49;6.13;;;4.07;;
55647;SDS011;45266;48.756;9.246;2022-08-25T03:07:51;4.95;;;4.38;;
55647;SDS011;45266;48.756;9.246;2022-08-25T03:08:54;4.80;;;4.20;;
55647;SDS011;45266;48.756;9.246;2022-08-25T03:09:56;4.72;;;4.30;;
55647;SDS011;45266;48.756;9.246;2022-08-25T03:10:58;4.47;;;3.90;;
55647;SDS011;45266;48.756;9.246;2022-08-25T03:12:00;5.85;;;4.95;;
55647;SDS011;45266;48.756;9.246;2022-08-25T03:13:02;4.45;;;4.05;;
55647;SDS011;45266;48.756;9.246;2022-08-25T03:14:05;5.30;;;4.80;;
55647;SDS011;45266;48.756;9.246;2022-08-25T03:15:08;4.82;;;4.25;;
55647;SDS011;45266;48.756;9.246;2022-08-25T03:16:13;4.97;;;4.55;;
55647;SDS011;45266;48.756;9.246;2022-08-25T03:17:14;4.43;;;4.03;;
55647;SDS011;45266;48.756;9.246;2022-08-25T03:18:16;4.97;;;4.15;;
55647;SDS011;45266;48.756;9.246;2022-08-25T03:19:18;6.07;;;4.63;;
55647;SDS011;45266;48.756;9.246;2022-08-25T03:20:20;6.38;;;4.38;;
55647;SDS011;45266;48.756;9.246;2022-08-25T03:21:24;4.13;;;3.72;;
55647;SDS011;45266;48.756;9.246;2022-08-25T03:22:27;4.75;;;4.35;;
55647;SDS011;45266;48.756;9.246;2022-08-25T03:23:29;4.88;;;4.38;;
55647;SDS011;45266;48.756;9.246;2022-08-25T03:24:31;6.90;;;3.80;;
55647;SDS011;45266;48.756;9.246;2022-08-25T03:25:32;5.72;;;4.63;;
55647;SDS011;45266;48.756;9.246;2022-08-25T03:26:55;5.07;;;4.57;;
55647;SDS011;45266;48.756;9.246;2022-08-25T03:27:57;5.10;;;4.60;;
55647;SDS011;45266;48.756;9.246;2022-08-25T03:28:59;4.95;;;4.22;;
55647;SDS011;45266;48.756;9.246;2022-08-25T03:30:05;4.53;;;4.10;;
55647;SDS011;45266;48.756;9.246;2022-08-25T03:31:08;4.95;;;4.45;;
55647;SDS011;45266;48.756;9.246;2022-08-25T03:32:10;4.47;;;4.07;;
55647;SDS011;45266;48.756;9.246;2022-08-25T03:33:11;5.47;;;4.93;;
55647;SDS011;45266;48.756;9.246;2022-08-25T03:34:15;5.13;;;4.63;;
55647;SDS011;45266;48.756;9.246;2022-08-25T03:35:18;4.40;;;4.00;;
55647;SDS011;45266;48.756;9.246;2022-08-25T03:36:20;4.60;;;4.20;;
55647;SDS011;45266;48.756;9.246;2022-08-25T03:37:31;5.65;;;4.30;;
55647;SDS011;45266;48.756;9.246;2022-08-25T03:38:33;5.50;;;4.57;;
55647;SDS011;45266;48.756;9.246;2022-08-25T03:39:36;5.50;;;4.13;;
55647;SDS011;45266;48.756;9.246;2022-08-25T03:40:37;4.93;;;4.40;;
55647;SDS011;45266;48.756;9.246;2022-08-25T03:41:39;4.50;;;4.10;;
55647;SDS011;45266;48.756;9.246;2022-08-25T03:42:41;5.35;;;4.60;;
55647;SDS011;45266;48.756;9.246;2022-08-25T03:43:45;4.57;;;4.03;;
55647;SDS011;45266;48.756;9.246;2022-08-25T03:44:49;4.78;;;4.38;;
55647;SDS011;45266;48.756;9.246;2022-08-25T03:45:50;5.10;;;4.40;;
55647;SDS011;45266;48.756;9.246;2022-08-25T03:46:52;5.00;;;4.60;;
55647;SDS011;45266;48.756;9.246;2022-08-25T03:47:54;5.90;;;4.50;;
55647;SDS011;45266;48.756;9.246;2022-08-25T03:48:56;5.35;;;4.82;;
55647;SDS011;45266;48.756;9.246;2022-08-25T03:50:00;5.20;;;4.70;;
55647;SDS011;45266;48.756;9.246;2022-08-25T03:51:02;4.80;;;4.32;;
55647;SDS011;45266;48.756;9.246;2022-08-25T03:52:04;5.13;;;4.63;;
55647;SDS011;45266;48.756;9.246;2022-08-25T03:53:06;4.75;;;4.20;;
55647;SDS011;45266;48.756;9.246;2022-08-25T03:54:11;4.78;;;4.22;;
55647;SDS011;45266;48.756;9.246;2022-08-25T03:55:13;5.22;;;4.53;;
55647;SDS011;45266;48.756;9.246;2022-08-25T03:56:15;4.93;;;4.43;;
55647;SDS011;45266;48.756;9.246;2022-08-25T03:57:17;5.38;;;4.82;;
55647;SDS011;45266;48.756;9.246;2022-08-25T03:58:21;5.20;;;4.07;;
55647;SDS011;45266;48.756;9.246;2022-08-25T03:59:22;5.07;;;4.28;;
55647;SDS011;45266;48.756;9.246;2022-08-25T04:00:24;6.95;;;4.60;;
55647;SDS011;45266;48.756;9.246;2022-08-25T04:01:26;5.90;;;4.70;;
55647;SDS011;45266;48.756;9.246;2022-08-25T04:02:28;4.82;;;4.20;;
55647;SDS011;45266;48.756;9.246;2022-08-25T04:03:31;5.10;;;4.60;;
55647;SDS011;45266;48.756;9.246;2022-08-25T04:04:33;5.32;;;4.82;;
55647;SDS011;45266;48.756;9.246;2022-08-25T04:05:35;5.10;;;4.50;;
55647;SDS011;45266;48.756;9.246;2022-08-25T04:06:37;4.82;;;4.32;;
55647;SDS011;45266;48.756;9.246;2022-08-25T04:07:40;6.63;;;4.88;;
55647;SDS011;45266;48.756;9.246;2022-08-25T04:08:42;5.10;;;4.60;;
55647;SDS011;45266;48.756;9.246;2022-08-25T04:09:43;6.55;;;4.38;;
55647;SDS011;45266;48.756;9.246;2022-08-25T04:10:45;5.80;;;4.70;;
55647;SDS011;45266;48.756;9.246;2022-08-25T04:11:48;7.38;;;4.90;;
55647;SDS011;45266;48.756;9.246;2022-08-25T04:12:53;5.13;;;4.63;;
55647;SDS011;45266;48.756;9.246;2022-08-25T04:13:56;7.47;;;5.28;;
55647;SDS011;45266;48.756;9.246;2022-08-25T04:14:59;6.45;;;5.07;;
55647;SDS011;45266;48.756;9.246;2022-08-25T04:16:02;5.25;;;4.53;;
55647;SDS011;45266;48.756;9.246;2022-08-25T04:17:04;5.45;;;4.80;;
55647;SDS011;45266;48.756;9.246;2022-08-25T04:18:06;5.28;;;4.72;;
55647;SDS011;45266;48.756;9.246;2022-08-25T04:19:08;5.85;;;4.88;;
55647;SDS011;45266;48.756;9.246;2022-08-25T04:20:10;5.05;;;4.55;;
55647;SDS011;45266;48.756;9.246;2022-08-25T04:21:14;5.50;;;4.90;;
55647;SDS011;45266;48.756;9.246;2022-08-25T04:22:17;6.07;;;4.68;;
55647;SDS011;45266;48.756;9.246;2022-08-25T04:23:19;5.80;;;5.20;;
55647;SDS011;45266;48.756;9.246;2022-08-25T04:24:21;5.70;;;4.95;;
55647;SDS011;45266;48.756;9.246;2022-08-25T04:25:23;5.15;;;4.65;;
55647;SDS011;45266;48.756;9.246;2022-08-25T04:26:29;5.50;;;4.75;;
55647;SDS011;45266;48.756;9.246;2022-08-25T04:27:32;5.78;;;5.07;;
55647;SDS011;45266;48.756;9.246;2022-08-25T04:28:34;5.80;;;4.78;;
55647;SDS011;45266;48.756;9.246;2022-08-25T04:29:36;9.52;;;5.43;;
55647;SDS011;45266;48.756;9.246;2022-08-25T04:30:40;7.07;;;5.18;;
55647;SDS011;45266;48.756;9.246;2022-08-25T04:31:43;5.93;;;4.88;;
55647;SDS011;45266;48.756;9.246;2022-08-25T04:32:52;5.53;;;4.78;;
55647;SDS011;45266;48.756;9.246;2022-08-25T04:33:54;6.07;;;4.97;;
55647;SDS011;45266;48.756;9.246;2022-08-25T04:34:57;5.05;;;4.57;;
55647;SDS011;45266;48.756;9.246;2022-08-25T04:35:59;6.32;;;4.93;;
55647;SDS011;45266;48.756;9.246;2022-08-25T04:37:01;6.30;;;4.63;;
55647;SDS011;45266;48.756;9.246;2022-08-25T04:38:05;4.88;;;4.40;;
55647;SDS011;45266;48.756;9.246;2022-08-25T04:39:07;5.60;;;5.10;;
55647;SDS011;45266;48.756;9.246;2022-08-25T04:40:11;7.43;;;4.80;;
55647;SDS011;45266;48.756;9.246;2022-08-25T04:41:13;5.65;;;5.15;;
55647;SDS011;45266;48.756;9.246;2022-08-25T04:42:16;6.68;;;5.55;;
55647;SDS011;45266;48.756;9.246;2022-08-25T04:43:18;5.30;;;4.47;;
55647;SDS011;45266;48.756;9.246;2022-08-25T04:44:20;5.20;;;4.78;;
55647;SDS011;45266;48.756;9.246;2022-08-25T04:45:21;7.60;;;4.95;;
55647;SDS011;45266;48.756;9.246;2022-08-25T04:46:24;5.50;;;5.00;;
55647;SDS011;45266;48.756;9.246;2022-08-25T04:47:28;8.10;;;5.00;;
55647;SDS011;45266;48.756;9.246;2022-08-25T04:48:31;6.07;;;5.07;;
55647;SDS011;45266;48.756;9.246;2022-08-25T04:49:34;5.13;;;4.60;;
55647;SDS011;45266;48.756;9.246;2022-08-25T04:50:38;6.40;;;5.40;;
55647;SDS011;45266;48.756;9.246;2022-08-25T04:51:40;5.97;;;4.70;;
55647;SDS011;45266;48.756;9.246;2022-08-25T04:52:42;6.20;;;5.07;;
55647;SDS011;45266;48.756;9.246;2022-08-25T04:53:44;5.93;;;4.95;;
55647;SDS011;45266;48.756;9.246;2022-08-25T04:54:46;5.70;;;5.20;;
55647;SDS011;45266;48.756;9.246;2022-08-25T04:55:48;5.60;;;5.10;;
55647;SDS011;45266;48.756;9.246;2022-08-25T04:56:50;6.68;;;5.03;;
55647;SDS011;45266;48.756;9.246;2022-08-25T04:57:58;8.07;;;5.88;;
55647;SDS011;45266;48.756;9.246;2022-08-25T04:59:03;7.43;;;5.93;;
55647;SDS011;45266;48.756;9.246;2022-08-25T05:00:07;6.18;;;5.50;;
55647;SDS011;45266;48.756;9.246;2022-08-25T05:01:10;6.28;;;5.22;;
55647;SDS011;45266;48.756;9.246;2022-08-25T05:02:17;6.10;;;5.50;;
55647;SDS011;45266;48.756;9.246;2022-08-25T05:03:19;6.70;;;5.05;;
55647;SDS011;45266;48.756;9.246;2022-08-25T05:04:21;6.93;;;5.90;;
55647;SDS011;45266;48.756;9.246;2022-08-25T05:05:29;5.43;;;4.93;;
55647;SDS011;45266;48.756;9.246;2022-08-25T05:06:34;5.60;;;5.03;;
55647;SDS011;45266;48.756;9.246;2022-08-25T05:07:36;7.22;;;5.32;;
55647;SDS011;45266;48.756;9.246;2022-08-25T05:08:38;7.50;;;5.60;;
55647;SDS011;45266;48.756;9.246;2022-08-25T05:09:40;6.47;;;5.35;;
55647;SDS011;45266;48.756;9.246;2022-08-25T05:10:42;6.25;;;5.38;;
55647;SDS011;45266;48.756;9.246;2022-08-25T05:11:43;6.00;;;5.40;;
55647;SDS011;45266;48.756;9.246;2022-08-25T05:12:47;6.35;;;5.70;;
55647;SDS011;45266;48.756;9.246;2022-08-25T05:13:49;8.73;;;5.97;;
55647;SDS011;45266;48.756;9.246;2022-08-25T05:14:53;7.50;;;5.13;;
55647;SDS011;45266;48.756;9.246;2022-08-25T05:15:56;6.40;;;5.28;;
55647;SDS011;45266;48.756;9.246;2022-08-25T05:17:00;6.75;;;5.40;;
55647;SDS011;45266;48.756;9.246;2022-08-25T05:18:02;6.55;;;5.95;;
55647;SDS011;45266;48.756;9.246;2022-08-25T05:19:04;8.38;;;6.03;;
55647;SDS011;45266;48.756;9.246;2022-08-25T05:20:07;6.57;;;5.43;;
55647;SDS011;45266;48.756;9.246;2022-08-25T05:21:10;7.80;;;5.47;;
55647;SDS011;45266;48.756;9.246;2022-08-25T05:22:13;7.45;;;5.30;;
55647;SDS011;45266;48.756;9.246;2022-08-25T05:23:15;6.35;;;5.70;;
55647;SDS011;45266;48.756;9.246;2022-08-25T05:24:17;7.50;;;5.63;;
55647;SDS011;45266;48.756;9.246;2022-08-25T05:25:20;7.30;;;5.57;;
55647;SDS011;45266;48.756;9.246;2022-08-25T05:26:22;5.90;;;5.07;;
55647;SDS011;45266;48.756;9.246;2022-08-25T05:27:25;7.55;;;5.63;;
55647;SDS011;45266;48.756;9.246;2022-08-25T05:28:26;6.65;;;6.05;;
55647;SDS011;45266;48.756;9.246;2022-08-25T05:29:29;6.50;;;5.35;;
55647;SDS011;45266;48.756;9.246;2022-08-25T05:30:30;6.60;;;6.00;;
55647;SDS011;45266;48.756;9.246;2022-08-25T05:31:32;6.97;;;5.82;;
55647;SDS011;45266;48.756;9.246;2022-08-25T05:32:41;8.90;;;6.05;;
55647;SDS011;45266;48.756;9.246;2022-08-25T05:33:43;7.25;;;5.78;;
55647;SDS011;45266;48.756;9.246;2022-08-25T05:34:45;5.82;;;5.22;;
55647;SDS011;45266;48.756;9.246;2022-08-25T05:35:47;5.82;;;5.25;;
55647;SDS011;45266;48.756;9.246;2022-08-25T05:36:51;6.00;;;5.40;;
55647;SDS011;45266;48.756;9.246;2022-08-25T05:37:53;8.57;;;5.68;;
55647;SDS011;45266;48.756;9.246;2022-08-25T05:38:57;6.07;;;5.47;;
55647;SDS011;45266;48.756;9.246;2022-08-25T05:39:59;6.03;;;5.43;;
55647;SDS011;45266;48.756;9.246;2022-08-25T05:41:02;6.65;;;5.25;;
55647;SDS011;45266;48.756;9.246;2022-08-25T05:42:06;6.00;;;5.05;;
55647;SDS011;45266;48.756;9.246;2022-08-25T05:43:08;5.63;;;4.97;;
55647;SDS011;45266;48.756;9.246;2022-08-25T05:44:10;5.97;;;5.30;;
55647;SDS011;45266;48.756;9.246;2022-08-25T05:45:12;5.90;;;5.30;;
55647;SDS011;45266;48.756;9.246;2022-08-25T05:46:21;6.75;;;5.63;;
55647;SDS011;45266;48.756;9.246;2022-08-25T05:47:23;9.43;;;5.70;;
55647;SDS011;45266;48.756;9.246;2022-08-25T05:48:25;7.78;;;5.55;;
55647;SDS011;45266;48.756;9.246;2022-08-25T05:49:27;7.78;;;6.05;;
55647;SDS011;45266;48.756;9.246;2022-08-25T05:50:29;5.60;;;5.05;;
55647;SDS011;45266;48.756;9.246;2022-08-25T05:51:31;8.20;;;5.85;;
55647;SDS011;45266;48.756;9.246;2022-08-25T05:52:32;6.07;;;5.22;;
55647;SDS011;45266;48.756;9.246;2022-08-25T05:53:34;5.78;;;5.18;;
55647;SDS011;45266;48.756;9.246;2022-08-25T05:54:38;5.63;;;5.13;;
55647;SDS011;45266;48.756;9.246;2022-08-25T05:55:42;6.07;;;5.47;;
55647;SDS011;45266;48.756;9.246;2022-08-25T05:56:45;6.03;;;5.40;;
55647;SDS011;45266;48.756;9.246;2022-08-25T05:57:48;5.70;;;5.20;;
55647;SDS011;45266;48.756;9.246;2022-08-25T05:58:50;8.18;;;5.28;;
55647;SDS011;45266;48.756;9.246;2022-08-25T05:59:52;6.20;;;5.50;;
55647;SDS011;45266;48.756;9.246;2022-08-25T06:00:54;6.35;;;5.30;;
55647;SDS011;45266;48.756;9.246;2022-08-25T06:01:57;5.68;;;5.10;;
55647;SDS011;45266;48.756;9.246;2022-08-25T06:03:17;6.38;;;5.05;;
55647;SDS011;45266;48.756;9.246;2022-08-25T06:04:19;4.68;;;4.28;;
55647;SDS011;45266;48.756;9.246;2022-08-25T06:05:22;6.22;;;4.80;;
55647;SDS011;45266;48.756;9.246;2022-08-25T06:06:24;5.35;;;4.85;;
55647;SDS011;45266;48.756;9.246;2022-08-25T06:07:26;7.28;;;5.45;;
55647;SDS011;45266;48.756;9.246;2022-08-25T06:08:28;5.43;;;4.90;;
55647;SDS011;45266;48.756;9.246;2022-08-25T06:09:33;5.85;;;5.20;;
55647;SDS011;45266;48.756;9.246;2022-08-25T06:10:37;8.60;;;5.50;;
55647;SDS011;45266;48.756;9.246;2022-08-25T06:11:39;8.10;;;5.18;;
55647;SDS011;45266;48.756;9.246;2022-08-25T06:12:41;5.38;;;4.88;;
55647;SDS011;45266;48.756;9.246;2022-08-25T06:13:45;6.03;;;4.90;;
55647;SDS011;45266;48.756;9.246;2022-08-25T06:14:47;6.97;;;5.63;;
55647;SDS011;45266;48.756;9.246;2022-08-25T06:15:49;6.32;;;5.22;;
55647;SDS011;45266;48.756;9.246;2022-08-25T06:16:57;5.75;;;5.10;;
55647;SDS011;45266;48.756;9.246;2022-08-25T06:18:00;5.90;;;5.30;;
55647;SDS011;45266;48.756;9.246;2022-08-25T06:19:03;6.10;;;5.45;;
55647;SDS011;45266;48.756;9.246;2022-08-25T06:20:07;5.72;;;5.18;;
55647;SDS011;45266;48.756;9.246;2022-08-25T06:21:12;6.05;;;5.45;;
55647;SDS011;45266;48.756;9.246;2022-08-25T06:22:16;5.53;;;5.03;;
55647;SDS011;45266;48.756;9.246;2022-08-25T06:23:18;6.05;;;5.05;;
55647;SDS011;45266;48.756;9.246;2022-08-25T06:24:20;5.90;;;5.13;;
55647;SDS011;45266;48.756;9.246;2022-08-25T06:25:22;7.85;;;5.25;;
55647;SDS011;45266;48.756;9.246;2022-08-25T06:26:25;5.38;;;4.82;;
55647;SDS011;45266;48.756;9.246;2022-08-25T06:27:27;7.15;;;5.70;;
55647;SDS011;45266;48.756;9.246;2022-08-25T06:28:29;6.03;;;5.43;;